Flight Track Log - Related Links

Times and Time Zones

All times are in EDT time to prevent confusion due to time zone crossing. See the N364PH flight status page for this flight to view local times or setup timezone preferences in your user account.

Time Position Orientation Groundspeed Altitude Reporting Facility
EDT Latitude Longitude Course Direction KTS MPH feet Rate Location/Type
Mon 10:04:39 AM 42.3672 -76.4342 119° Southeast 192 221 7,400  Level New York Center
Mon 10:05:40 AM 42.3517 -76.3653 107° East 237 273 8,000 1,036 Climbing New York Center
Mon 10:07:27 AM 42.3161 -76.2339 110° East 227 261 10,300 1,293 Climbing Boston Center
Mon 10:08:00 AM 42.2581 -75.8427 119° Southeast  Level FlightAware Approximate
Mon 10:08:27 AM 42.2917 -76.1508 112° Southeast 221 254 11,600  Level Boston Center
Mon 10:09:00 AM 42.2290 -75.7730 119° Southeast  Level FlightAware Approximate
Mon 10:09:27 AM 42.2753 -76.0797 107° East 211 243 13,100  Level Boston Center
Mon 10:10:00 AM 42.2001 -75.7034 119° Southeast  Level FlightAware Approximate
Mon 10:10:27 AM 42.2547 -76.0028 110° East 211 243 14,400  Level Boston Center
Mon 10:11:27 AM 42.2344 -75.9203 108° East 218 251 15,000 300 Climbing Boston Center
Mon 10:12:27 AM 42.2058 -75.8289 113° Southeast 236 272 15,000  Level Boston Center
Mon 10:13:27 AM 42.1817 -75.7353 109° East 259 298 15,000  Level Boston Center
Mon 10:14:27 AM 42.1553 -75.6386 110° East 259 298 15,000  Level Boston Center
Mon 10:15:27 AM 42.1286 -75.5447 111° Southeast 265 305 15,000 50 Level Boston Center
Mon 10:16:27 AM 42.1019 -75.4511 111° Southeast 265 305 15,100 50 Climbing Boston Center
Mon 10:17:27 AM 42.0753 -75.3575 111° Southeast 265 305 15,100  Level Boston Center
Mon 10:18:27 AM 42.0483 -75.2694 112° Southeast 265 305 15,100 -50 Level Boston Center
Mon 10:19:27 AM 42.0150 -75.1814 117° Southeast 259 298 15,000 -50 Descending Boston Center
Mon 10:20:27 AM 41.9756 -75.0847 119° Southeast 265 305 15,000  Level Boston Center
Mon 10:21:27 AM 41.9442 -75.0025 117° Southeast 265 305 15,000 -500 Level Boston Center
Mon 10:22:27 AM 41.8958 -74.9225 129° Southeast 265 305 14,000 -1,200 Descending Boston Center
Mon 10:23:27 AM 41.8494 -74.8564 133° Southeast 265 305 12,600 -1,500 Descending Boston Center
Mon 10:24:27 AM 41.7925 -74.7819 136° Southeast 265 305 11,000 -1,500 Descending Boston Center
Mon 10:25:27 AM 41.7481 -74.7192 133° Southeast 260 299 9,600 -1,400 Descending Boston Center
Mon 10:26:27 AM 41.6933 -74.6447 135° Southeast 260 299 8,200 -1,250 Descending Boston Center
Mon 10:27:27 AM 41.6486 -74.5850 135° Southeast 260 299 7,100 -950 Descending Boston Center
Mon 10:28:27 AM 41.5822 -74.5578 163° South 225 259 6,300 -550 Descending Boston Center
Mon 10:29:27 AM 41.5217 -74.5722 190° South 236 272 6,000 -150 Descending Boston Center
Mon 10:30:27 AM 41.4506 -74.5839 187° South 236 272 6,000  Level Boston Center
Mon 10:31:51 AM 41.3667 -74.6167 196° South 236 272 6,000  Level New York TRACON
Mon 10:32:57 AM 41.2833 -74.6333 189° South 238 274 6,000  Level New York TRACON
Mon 10:33:51 AM 41.2333 -74.6667 207° Southwest 239 275 6,000  Level New York TRACON
Mon 10:34:57 AM 41.1667 -74.6500 169° South 233 268 6,000  Level New York TRACON
Mon 10:35:57 AM 41.1000 -74.6333 169° South 233 268 6,000  Level New York TRACON
Mon 10:36:57 AM 41.0333 -74.6000 159° South 229 264 6,000  Level New York TRACON
Mon 10:37:51 AM 41.0167 -74.5333 108° East 228 262 6,000  Level New York TRACON
Mon 10:38:51 AM 40.9667 -74.5500 194° South 248 285 6,000  Level New York TRACON
Mon 10:39:57 AM 40.9000 -74.5833 201° Southwest 240 276 6,000  Level New York TRACON
Mon 10:40:57 AM 40.8333 -74.6000 191° South 238 274 6,000 -150 Level New York TRACON
Mon 10:41:57 AM 40.7667 -74.6000 180° South 235 270 5,700 -500 Descending New York TRACON
Mon 10:42:57 AM 40.7000 -74.5833 169° South 225 259 5,000 -350 Descending New York TRACON
Mon 10:43:57 AM 40.6333 -74.5833 180° South 222 255 5,000  Level New York TRACON
Mon 10:44:57 AM 40.5833 -74.5500 153° Southeast 203 234 5,000 -500 Level New York TRACON
Mon 10:45:57 AM 40.5333 -74.5000 143° Southeast 209 241 4,000 -950 Descending New York TRACON
Mon 10:46:57 AM 40.5167 -74.4333 108° East 207 238 3,100 -500 Descending New York TRACON
Mon 10:47:57 AM 40.5000 -74.3667 108° East 198 228 3,000 -200 Descending New York TRACON
Mon 10:48:57 AM 40.5167 -74.3000 72° East 199 229 2,700 -476 Descending New York TRACON
Mon 10:50:03 AM 40.5500 -74.2500 49° Northeast 175 201 2,000 -347 Descending New York TRACON
Mon 10:50:58 AM 40.6000 -74.2333 14° North 164 189 2,000 -450 Level New York TRACON
Mon 10:52:03 AM 40.6333 -74.2000 37° Northeast 148 170 1,100 -831 Descending New York TRACON

Login

Don't have an account? Register now (free) for customized features, flight alerts, and more!